sensor_id;sensor_type;location;lat;lon;timestamp;temperature;humidity
40638;DHT22;26336;44.696;10.622;2023-03-19T00:02:30;11.60;95.40
40638;DHT22;26336;44.696;10.622;2023-03-19T00:05:34;11.50;95.50
40638;DHT22;26336;44.696;10.622;2023-03-19T00:08:38;11.50;95.60
40638;DHT22;26336;44.696;10.622;2023-03-19T00:11:46;11.50;95.90
40638;DHT22;26336;44.696;10.622;2023-03-19T00:14:50;11.40;95.90
40638;DHT22;26336;44.696;10.622;2023-03-19T00:17:54;11.50;95.90
40638;DHT22;26336;44.696;10.622;2023-03-19T00:20:59;11.50;96.00
40638;DHT22;26336;44.696;10.622;2023-03-19T00:24:04;11.50;95.90
40638;DHT22;26336;44.696;10.622;2023-03-19T00:27:09;11.50;95.80
40638;DHT22;26336;44.696;10.622;2023-03-19T00:30:13;11.50;95.80
40638;DHT22;26336;44.696;10.622;2023-03-19T00:33:17;11.40;95.80
40638;DHT22;26336;44.696;10.622;2023-03-19T00:36:24;11.30;96.00
40638;DHT22;26336;44.696;10.622;2023-03-19T00:39:28;11.20;96.20
40638;DHT22;26336;44.696;10.622;2023-03-19T00:42:33;11.10;96.40
40638;DHT22;26336;44.696;10.622;2023-03-19T00:45:36;11.10;96.40
40638;DHT22;26336;44.696;10.622;2023-03-19T00:48:40;11.10;96.50
40638;DHT22;26336;44.696;10.622;2023-03-19T00:51:44;11.10;96.30
40638;DHT22;26336;44.696;10.622;2023-03-19T00:54:49;11.20;96.40
40638;DHT22;26336;44.696;10.622;2023-03-19T00:57:55;11.20;96.30
40638;DHT22;26336;44.696;10.622;2023-03-19T01:01:00;11.20;96.40
40638;DHT22;26336;44.696;10.622;2023-03-19T01:04:04;11.20;96.50
40638;DHT22;26336;44.696;10.622;2023-03-19T01:07:09;11.20;96.60
40638;DHT22;26336;44.696;10.622;2023-03-19T01:10:17;11.20;96.70
40638;DHT22;26336;44.696;10.622;2023-03-19T01:13:21;11.20;96.70
40638;DHT22;26336;44.696;10.622;2023-03-19T01:16:26;11.20;96.50
40638;DHT22;26336;44.696;10.622;2023-03-19T01:19:31;11.10;96.40
40638;DHT22;26336;44.696;10.622;2023-03-19T01:22:35;11.10;96.70
40638;DHT22;26336;44.696;10.622;2023-03-19T01:25:39;11.10;96.80
40638;DHT22;26336;44.696;10.622;2023-03-19T01:28:44;11.10;96.70
40638;DHT22;26336;44.696;10.622;2023-03-19T01:31:49;11.10;97.00
40638;DHT22;26336;44.696;10.622;2023-03-19T01:35:09;11.10;96.80
40638;DHT22;26336;44.696;10.622;2023-03-19T01:38:12;11.10;97.10
40638;DHT22;26336;44.696;10.622;2023-03-19T01:41:17;11.10;97.10
40638;DHT22;26336;44.696;10.622;2023-03-19T01:44:33;11.10;96.90
40638;DHT22;26336;44.696;10.622;2023-03-19T01:47:59;11.20;96.90
40638;DHT22;26336;44.696;10.622;2023-03-19T01:51:21;11.20;96.70
40638;DHT22;26336;44.696;10.622;2023-03-19T01:54:41;11.20;96.90
40638;DHT22;26336;44.696;10.622;2023-03-19T01:58:23;11.20;96.60
40638;DHT22;26336;44.696;10.622;2023-03-19T02:05:13;11.20;96.70
40638;DHT22;26336;44.696;10.622;2023-03-19T02:08:19;11.20;96.60
40638;DHT22;26336;44.696;10.622;2023-03-19T02:11:26;11.20;96.50
40638;DHT22;26336;44.696;10.622;2023-03-19T02:14:30;11.20;96.50
40638;DHT22;26336;44.696;10.622;2023-03-19T02:17:34;11.20;96.60
40638;DHT22;26336;44.696;10.622;2023-03-19T02:24:15;11.10;96.80
40638;DHT22;26336;44.696;10.622;2023-03-19T02:27:34;11.10;97.00
40638;DHT22;26336;44.696;10.622;2023-03-19T02:30:38;11.10;97.10
40638;DHT22;26336;44.696;10.622;2023-03-19T02:34:00;11.10;97.20
40638;DHT22;26336;44.696;10.622;2023-03-19T02:40:33;11.20;97.00
40638;DHT22;26336;44.696;10.622;2023-03-19T02:43:41;11.20;97.10
40638;DHT22;26336;44.696;10.622;2023-03-19T02:46:45;11.10;97.20
40638;DHT22;26336;44.696;10.622;2023-03-19T02:49:49;11.20;97.20
40638;DHT22;26336;44.696;10.622;2023-03-19T02:52:53;11.10;97.40
40638;DHT22;26336;44.696;10.622;2023-03-19T02:55:57;11.00;97.50
40638;DHT22;26336;44.696;10.622;2023-03-19T02:59:01;11.00;97.40
40638;DHT22;26336;44.696;10.622;2023-03-19T03:02:06;11.10;97.20
40638;DHT22;26336;44.696;10.622;2023-03-19T03:05:10;11.00;97.20
40638;DHT22;26336;44.696;10.622;2023-03-19T03:08:14;10.90;97.20
40638;DHT22;26336;44.696;10.622;2023-03-19T03:11:18;10.80;97.20
40638;DHT22;26336;44.696;10.622;2023-03-19T03:14:23;10.60;97.60
40638;DHT22;26336;44.696;10.622;2023-03-19T03:17:27;10.60;97.90
40638;DHT22;26336;44.696;10.622;2023-03-19T03:20:31;10.60;97.90
40638;DHT22;26336;44.696;10.622;2023-03-19T03:23:35;10.60;97.90
40638;DHT22;26336;44.696;10.622;2023-03-19T03:26:40;10.70;97.90
40638;DHT22;26336;44.696;10.622;2023-03-19T03:29:44;10.80;98.00
40638;DHT22;26336;44.696;10.622;2023-03-19T03:32:48;10.80;97.50
40638;DHT22;26336;44.696;10.622;2023-03-19T03:35:52;10.90;97.90
40638;DHT22;26336;44.696;10.622;2023-03-19T03:38:56;10.90;97.90
40638;DHT22;26336;44.696;10.622;2023-03-19T03:42:02;10.90;97.80
40638;DHT22;26336;44.696;10.622;2023-03-19T03:45:08;11.00;97.80
40638;DHT22;26336;44.696;10.622;2023-03-19T03:48:14;11.00;98.00
40638;DHT22;26336;44.696;10.622;2023-03-19T03:51:18;11.00;97.90
40638;DHT22;26336;44.696;10.622;2023-03-19T03:54:22;11.00;98.00
40638;DHT22;26336;44.696;10.622;2023-03-19T03:57:26;10.90;98.20
40638;DHT22;26336;44.696;10.622;2023-03-19T04:00:31;10.70;98.40
40638;DHT22;26336;44.696;10.622;2023-03-19T04:03:35;10.60;98.60
40638;DHT22;26336;44.696;10.622;2023-03-19T04:06:39;10.50;98.70
40638;DHT22;26336;44.696;10.622;2023-03-19T04:10:16;10.60;98.90
40638;DHT22;26336;44.696;10.622;2023-03-19T04:13:19;10.60;98.60
40638;DHT22;26336;44.696;10.622;2023-03-19T04:16:23;10.60;98.40
40638;DHT22;26336;44.696;10.622;2023-03-19T04:19:28;10.50;98.50
40638;DHT22;26336;44.696;10.622;2023-03-19T04:22:32;10.50;98.60
40638;DHT22;26336;44.696;10.622;2023-03-19T04:25:38;10.60;98.70
40638;DHT22;26336;44.696;10.622;2023-03-19T04:28:43;10.70;98.50
40638;DHT22;26336;44.696;10.622;2023-03-19T04:31:48;10.80;98.30
40638;DHT22;26336;44.696;10.622;2023-03-19T04:34:53;10.80;98.10
40638;DHT22;26336;44.696;10.622;2023-03-19T04:37:57;10.70;98.30
40638;DHT22;26336;44.696;10.622;2023-03-19T04:41:02;10.70;98.40
40638;DHT22;26336;44.696;10.622;2023-03-19T04:44:06;10.80;98.50
40638;DHT22;26336;44.696;10.622;2023-03-19T04:47:11;10.80;98.50
40638;DHT22;26336;44.696;10.622;2023-03-19T04:50:28;10.80;98.30
40638;DHT22;26336;44.696;10.622;2023-03-19T04:53:33;10.80;98.40
40638;DHT22;26336;44.696;10.622;2023-03-19T04:56:38;10.80;98.60
40638;DHT22;26336;44.696;10.622;2023-03-19T04:59:42;10.90;98.60
40638;DHT22;26336;44.696;10.622;2023-03-19T05:02:48;10.90;98.70
40638;DHT22;26336;44.696;10.622;2023-03-19T05:05:53;10.90;98.70
40638;DHT22;26336;44.696;10.622;2023-03-19T05:08:57;10.90;98.60
40638;DHT22;26336;44.696;10.622;2023-03-19T05:12:02;10.90;98.50
40638;DHT22;26336;44.696;10.622;2023-03-19T05:15:14;10.90;98.40
40638;DHT22;26336;44.696;10.622;2023-03-19T05:18:28;10.90;98.50
40638;DHT22;26336;44.696;10.622;2023-03-19T05:21:32;11.00;98.40
40638;DHT22;26336;44.696;10.622;2023-03-19T05:24:36;11.00;98.40
40638;DHT22;26336;44.696;10.622;2023-03-19T05:27:41;11.00;98.30
40638;DHT22;26336;44.696;10.622;2023-03-19T05:30:55;11.00;98.30
40638;DHT22;26336;44.696;10.622;2023-03-19T05:34:03;11.00;98.50
40638;DHT22;26336;44.696;10.622;2023-03-19T05:37:09;11.00;98.60
40638;DHT22;26336;44.696;10.622;2023-03-19T05:40:13;11.00;98.80
40638;DHT22;26336;44.696;10.622;2023-03-19T05:43:19;11.00;99.00
40638;DHT22;26336;44.696;10.622;2023-03-19T05:46:24;11.00;99.00
40638;DHT22;26336;44.696;10.622;2023-03-19T05:49:28;11.00;99.00
40638;DHT22;26336;44.696;10.622;2023-03-19T05:52:32;11.00;99.00
40638;DHT22;26336;44.696;10.622;2023-03-19T05:55:37;11.00;98.90
40638;DHT22;26336;44.696;10.622;2023-03-19T05:58:44;11.00;98.90
40638;DHT22;26336;44.696;10.622;2023-03-19T06:01:49;11.00;99.00
40638;DHT22;26336;44.696;10.622;2023-03-19T06:04:53;10.90;99.10
40638;DHT22;26336;44.696;10.622;2023-03-19T06:08:02;10.90;99.10
40638;DHT22;26336;44.696;10.622;2023-03-19T06:11:29;10.90;99.20
40638;DHT22;26336;44.696;10.622;2023-03-19T06:14:54;10.90;99.40
40638;DHT22;26336;44.696;10.622;2023-03-19T06:18:22;10.90;99.50
40638;DHT22;26336;44.696;10.622;2023-03-19T06:21:26;10.90;99.40
40638;DHT22;26336;44.696;10.622;2023-03-19T06:24:34;10.90;99.60
40638;DHT22;26336;44.696;10.622;2023-03-19T06:27:38;10.90;99.70
40638;DHT22;26336;44.696;10.622;2023-03-19T06:31:01;10.90;99.80
40638;DHT22;26336;44.696;10.622;2023-03-19T06:34:24;10.90;99.80
40638;DHT22;26336;44.696;10.622;2023-03-19T06:37:28;10.90;99.90
40638;DHT22;26336;44.696;10.622;2023-03-19T06:40:35;10.90;99.80
40638;DHT22;26336;44.696;10.622;2023-03-19T06:43:39;10.90;99.80
40638;DHT22;26336;44.696;10.622;2023-03-19T06:46:44;10.90;99.80
40638;DHT22;26336;44.696;10.622;2023-03-19T06:49:49;10.90;99.80
40638;DHT22;26336;44.696;10.622;2023-03-19T06:52:53;10.90;99.80
40638;DHT22;26336;44.696;10.622;2023-03-19T06:56:01;11.00;99.70
40638;DHT22;26336;44.696;10.622;2023-03-19T06:59:07;11.00;99.70
40638;DHT22;26336;44.696;10.622;2023-03-19T07:02:15;11.00;99.70
40638;DHT22;26336;44.696;10.622;2023-03-19T07:05:20;11.00;99.70
40638;DHT22;26336;44.696;10.622;2023-03-19T07:08:24;11.00;99.60
40638;DHT22;26336;44.696;10.622;2023-03-19T07:11:32;11.00;99.50
40638;DHT22;26336;44.696;10.622;2023-03-19T07:14:36;11.10;99.50
40638;DHT22;26336;44.696;10.622;2023-03-19T07:17:40;11.10;99.70
40638;DHT22;26336;44.696;10.622;2023-03-19T07:20:44;11.10;99.40
40638;DHT22;26336;44.696;10.622;2023-03-19T07:23:51;11.10;99.50
40638;DHT22;26336;44.696;10.622;2023-03-19T07:26:55;11.10;99.50
40638;DHT22;26336;44.696;10.622;2023-03-19T07:30:00;11.10;99.50
40638;DHT22;26336;44.696;10.622;2023-03-19T07:33:04;11.10;99.30
40638;DHT22;26336;44.696;10.622;2023-03-19T07:36:09;11.20;99.30
40638;DHT22;26336;44.696;10.622;2023-03-19T07:39:15;11.30;99.20
40638;DHT22;26336;44.696;10.622;2023-03-19T07:42:20;11.30;98.90
40638;DHT22;26336;44.696;10.622;2023-03-19T07:45:25;11.40;98.90
40638;DHT22;26336;44.696;10.622;2023-03-19T07:48:29;11.40;98.70
40638;DHT22;26336;44.696;10.622;2023-03-19T07:51:33;11.50;98.50
40638;DHT22;26336;44.696;10.622;2023-03-19T07:54:37;11.50;98.40
40638;DHT22;26336;44.696;10.622;2023-03-19T07:57:41;11.60;98.30
40638;DHT22;26336;44.696;10.622;2023-03-19T08:00:47;11.60;98.40
40638;DHT22;26336;44.696;10.622;2023-03-19T08:03:52;11.60;98.40
40638;DHT22;26336;44.696;10.622;2023-03-19T08:06:56;11.70;98.40
40638;DHT22;26336;44.696;10.622;2023-03-19T08:10:03;11.70;98.40
40638;DHT22;26336;44.696;10.622;2023-03-19T08:13:11;11.80;98.50
40638;DHT22;26336;44.696;10.622;2023-03-19T08:16:17;11.80;98.50
40638;DHT22;26336;44.696;10.622;2023-03-19T08:19:24;11.90;98.40
40638;DHT22;26336;44.696;10.622;2023-03-19T08:22:28;12.00;98.30
40638;DHT22;26336;44.696;10.622;2023-03-19T08:25:33;12.00;98.30
40638;DHT22;26336;44.696;10.622;2023-03-19T08:28:37;12.10;98.80
40638;DHT22;26336;44.696;10.622;2023-03-19T08:31:42;12.10;98.30
40638;DHT22;26336;44.696;10.622;2023-03-19T08:34:47;12.20;98.20
40638;DHT22;26336;44.696;10.622;2023-03-19T08:37:52;12.20;98.20
40638;DHT22;26336;44.696;10.622;2023-03-19T08:40:56;12.30;98.10
40638;DHT22;26336;44.696;10.622;2023-03-19T08:44:04;12.30;98.10
40638;DHT22;26336;44.696;10.622;2023-03-19T08:47:09;12.40;98.10
40638;DHT22;26336;44.696;10.622;2023-03-19T08:50:14;12.40;98.10
40638;DHT22;26336;44.696;10.622;2023-03-19T08:53:18;12.50;98.20
40638;DHT22;26336;44.696;10.622;2023-03-19T08:56:23;12.50;97.90
40638;DHT22;26336;44.696;10.622;2023-03-19T08:59:27;12.60;97.80
40638;DHT22;26336;44.696;10.622;2023-03-19T09:02:32;12.70;97.80
40638;DHT22;26336;44.696;10.622;2023-03-19T09:05:37;12.80;97.20
40638;DHT22;26336;44.696;10.622;2023-03-19T09:08:43;12.80;97.20
40638;DHT22;26336;44.696;10.622;2023-03-19T09:11:48;12.80;97.20
40638;DHT22;26336;44.696;10.622;2023-03-19T09:14:52;12.90;97.10
40638;DHT22;26336;44.696;10.622;2023-03-19T09:17:56;13.00;97.00
40638;DHT22;26336;44.696;10.622;2023-03-19T09:21:00;13.10;97.00
40638;DHT22;26336;44.696;10.622;2023-03-19T09:24:05;13.10;96.90
40638;DHT22;26336;44.696;10.622;2023-03-19T09:27:12;13.20;96.90
40638;DHT22;26336;44.696;10.622;2023-03-19T09:30:16;13.20;97.20
40638;DHT22;26336;44.696;10.622;2023-03-19T09:33:20;13.30;97.20
40638;DHT22;26336;44.696;10.622;2023-03-19T09:36:24;13.30;97.20
40638;DHT22;26336;44.696;10.622;2023-03-19T09:39:29;13.30;97.40
40638;DHT22;26336;44.696;10.622;2023-03-19T09:42:52;13.40;97.30
40638;DHT22;26336;44.696;10.622;2023-03-19T09:46:01;13.40;97.50
40638;DHT22;26336;44.696;10.622;2023-03-19T09:55:27;13.50;97.70
40638;DHT22;26336;44.696;10.622;2023-03-19T09:58:35;13.50;98.00
40638;DHT22;26336;44.696;10.622;2023-03-19T10:01:43;13.50;97.60
40638;DHT22;26336;44.696;10.622;2023-03-19T10:08:48;13.50;97.60
40638;DHT22;26336;44.696;10.622;2023-03-19T10:15:28;13.50;97.60
40638;DHT22;26336;44.696;10.622;2023-03-19T10:18:42;13.60;97.50
40638;DHT22;26336;44.696;10.622;2023-03-19T10:21:57;13.50;97.40
40638;DHT22;26336;44.696;10.622;2023-03-19T10:25:05;13.50;97.10
40638;DHT22;26336;44.696;10.622;2023-03-19T10:28:17;13.60;97.30
40638;DHT22;26336;44.696;10.622;2023-03-19T10:31:28;13.60;96.90
40638;DHT22;26336;44.696;10.622;2023-03-19T10:34:46;13.60;96.70
40638;DHT22;26336;44.696;10.622;2023-03-19T10:37:54;13.60;96.60
40638;DHT22;26336;44.696;10.622;2023-03-19T10:41:26;13.60;96.50
40638;DHT22;26336;44.696;10.622;2023-03-19T10:44:48;13.60;96.60
40638;DHT22;26336;44.696;10.622;2023-03-19T10:47:55;13.60;96.90
40638;DHT22;26336;44.696;10.622;2023-03-19T10:51:03;13.60;97.40
40638;DHT22;26336;44.696;10.622;2023-03-19T10:54:25;13.70;97.50
40638;DHT22;26336;44.696;10.622;2023-03-19T10:57:32;13.70;97.30
40638;DHT22;26336;44.696;10.622;2023-03-19T11:00:36;13.70;97.40
40638;DHT22;26336;44.696;10.622;2023-03-19T11:03:57;13.60;97.50
40638;DHT22;26336;44.696;10.622;2023-03-19T11:07:09;13.60;97.30
40638;DHT22;26336;44.696;10.622;2023-03-19T11:10:15;13.60;97.20
40638;DHT22;26336;44.696;10.622;2023-03-19T11:13:23;13.70;97.70
40638;DHT22;26336;44.696;10.622;2023-03-19T11:16:30;13.80;97.30
40638;DHT22;26336;44.696;10.622;2023-03-19T11:19:40;13.90;96.30
40638;DHT22;26336;44.696;10.622;2023-03-19T11:22:48;13.80;96.40
40638;DHT22;26336;44.696;10.622;2023-03-19T11:25:58;13.90;96.40
40638;DHT22;26336;44.696;10.622;2023-03-19T11:29:04;14.00;96.70
40638;DHT22;26336;44.696;10.622;2023-03-19T11:35:43;14.00;96.20
40638;DHT22;26336;44.696;10.622;2023-03-19T11:58:02;13.90;96.50
40638;DHT22;26336;44.696;10.622;2023-03-19T12:11:23;14.00;97.10
40638;DHT22;26336;44.696;10.622;2023-03-19T12:14:52;14.20;96.80
40638;DHT22;26336;44.696;10.622;2023-03-19T12:28:23;14.60;95.60
40638;DHT22;26336;44.696;10.622;2023-03-19T12:35:02;14.60;94.70
40638;DHT22;26336;44.696;10.622;2023-03-19T12:38:19;14.60;94.90
40638;DHT22;26336;44.696;10.622;2023-03-19T12:41:27;14.60;94.90
40638;DHT22;26336;44.696;10.622;2023-03-19T12:44:38;14.70;94.40
40638;DHT22;26336;44.696;10.622;2023-03-19T12:47:45;14.70;93.80
40638;DHT22;26336;44.696;10.622;2023-03-19T12:50:53;14.70;94.00
40638;DHT22;26336;44.696;10.622;2023-03-19T12:54:07;14.70;94.10
40638;DHT22;26336;44.696;10.622;2023-03-19T13:04:07;14.90;94.70
40638;DHT22;26336;44.696;10.622;2023-03-19T13:07:23;14.90;94.30
40638;DHT22;26336;44.696;10.622;2023-03-19T13:10:33;14.80;93.70
40638;DHT22;26336;44.696;10.622;2023-03-19T13:13:39;14.80;93.70
40638;DHT22;26336;44.696;10.622;2023-03-19T13:17:11;14.80;93.90
40638;DHT22;26336;44.696;10.622;2023-03-19T13:20:36;14.90;93.60
40638;DHT22;26336;44.696;10.622;2023-03-19T13:23:50;14.90;93.40
40638;DHT22;26336;44.696;10.622;2023-03-19T13:27:01;14.90;93.50
40638;DHT22;26336;44.696;10.622;2023-03-19T13:33:20;15.00;94.30
40638;DHT22;26336;44.696;10.622;2023-03-19T13:37:05;14.90;94.30
40638;DHT22;26336;44.696;10.622;2023-03-19T13:40:36;14.90;94.40
40638;DHT22;26336;44.696;10.622;2023-03-19T13:43:42;15.00;94.50
40638;DHT22;26336;44.696;10.622;2023-03-19T13:46:54;15.00;94.20
40638;DHT22;26336;44.696;10.622;2023-03-19T13:57:05;15.10;94.80
40638;DHT22;26336;44.696;10.622;2023-03-19T14:01:03;15.10;94.90
40638;DHT22;26336;44.696;10.622;2023-03-19T14:04:06;15.10;94.80
40638;DHT22;26336;44.696;10.622;2023-03-19T14:07:20;15.10;95.00
40638;DHT22;26336;44.696;10.622;2023-03-19T14:10:30;15.10;94.30
40638;DHT22;26336;44.696;10.622;2023-03-19T14:13:39;15.10;94.20
40638;DHT22;26336;44.696;10.622;2023-03-19T14:16:45;15.10;93.50
40638;DHT22;26336;44.696;10.622;2023-03-19T14:19:55;15.10;93.20
40638;DHT22;26336;44.696;10.622;2023-03-19T14:26:15;15.20;94.70
40638;DHT22;26336;44.696;10.622;2023-03-19T14:29:24;15.20;94.20
40638;DHT22;26336;44.696;10.622;2023-03-19T14:32:41;15.20;94.80
40638;DHT22;26336;44.696;10.622;2023-03-19T14:35:47;15.20;95.10
40638;DHT22;26336;44.696;10.622;2023-03-19T14:39:01;15.20;94.90
40638;DHT22;26336;44.696;10.622;2023-03-19T14:42:41;15.20;95.10
40638;DHT22;26336;44.696;10.622;2023-03-19T14:45:58;15.20;94.30
40638;DHT22;26336;44.696;10.622;2023-03-19T14:52:35;15.30;94.00
40638;DHT22;26336;44.696;10.622;2023-03-19T14:55:42;15.20;93.70
40638;DHT22;26336;44.696;10.622;2023-03-19T14:58:55;15.30;93.30
40638;DHT22;26336;44.696;10.622;2023-03-19T15:02:00;15.20;92.90
40638;DHT22;26336;44.696;10.622;2023-03-19T15:05:23;15.30;92.70
40638;DHT22;26336;44.696;10.622;2023-03-19T15:08:30;15.30;93.20
40638;DHT22;26336;44.696;10.622;2023-03-19T15:18:34;15.20;94.20
40638;DHT22;26336;44.696;10.622;2023-03-19T15:21:40;15.20;94.30
40638;DHT22;26336;44.696;10.622;2023-03-19T15:24:47;15.10;93.90
40638;DHT22;26336;44.696;10.622;2023-03-19T15:28:09;15.10;93.50
40638;DHT22;26336;44.696;10.622;2023-03-19T15:31:15;15.10;93.60
40638;DHT22;26336;44.696;10.622;2023-03-19T15:34:27;15.00;93.60
40638;DHT22;26336;44.696;10.622;2023-03-19T15:37:42;15.00;94.00
40638;DHT22;26336;44.696;10.622;2023-03-19T15:40:47;15.00;94.40
40638;DHT22;26336;44.696;10.622;2023-03-19T15:44:06;14.90;94.00
40638;DHT22;26336;44.696;10.622;2023-03-19T15:47:22;14.90;93.70
40638;DHT22;26336;44.696;10.622;2023-03-19T15:50:42;14.90;93.90
40638;DHT22;26336;44.696;10.622;2023-03-19T15:53:48;14.90;93.90
40638;DHT22;26336;44.696;10.622;2023-03-19T15:56:53;14.80;94.20
40638;DHT22;26336;44.696;10.622;2023-03-19T15:59:59;14.80;94.30
40638;DHT22;26336;44.696;10.622;2023-03-19T16:03:05;14.80;94.80
40638;DHT22;26336;44.696;10.622;2023-03-19T16:06:30;14.80;94.90
40638;DHT22;26336;44.696;10.622;2023-03-19T16:09:35;14.80;94.80
40638;DHT22;26336;44.696;10.622;2023-03-19T16:12:50;14.80;94.80
40638;DHT22;26336;44.696;10.622;2023-03-19T16:16:04;14.80;94.90
40638;DHT22;26336;44.696;10.622;2023-03-19T16:19:37;14.70;94.70
40638;DHT22;26336;44.696;10.622;2023-03-19T16:22:52;14.70;94.50
40638;DHT22;26336;44.696;10.622;2023-03-19T16:26:11;14.70;94.90
40638;DHT22;26336;44.696;10.622;2023-03-19T16:29:23;14.70;95.10
40638;DHT22;26336;44.696;10.622;2023-03-19T16:32:29;14.70;94.50
40638;DHT22;26336;44.696;10.622;2023-03-19T16:35:34;14.70;94.40
40638;DHT22;26336;44.696;10.622;2023-03-19T16:42:13;14.70;94.40
40638;DHT22;26336;44.696;10.622;2023-03-19T16:45:28;14.70;94.80
40638;DHT22;26336;44.696;10.622;2023-03-19T16:48:32;14.60;94.90
40638;DHT22;26336;44.696;10.622;2023-03-19T16:51:38;14.60;95.00
40638;DHT22;26336;44.696;10.622;2023-03-19T16:55:25;14.60;95.30
40638;DHT22;26336;44.696;10.622;2023-03-19T16:58:36;14.50;95.30
40638;DHT22;26336;44.696;10.622;2023-03-19T17:01:41;14.50;95.10
40638;DHT22;26336;44.696;10.622;2023-03-19T17:04:45;14.50;95.10
40638;DHT22;26336;44.696;10.622;2023-03-19T17:07:50;14.60;95.30
40638;DHT22;26336;44.696;10.622;2023-03-19T17:10:57;14.60;95.20
40638;DHT22;26336;44.696;10.622;2023-03-19T17:14:02;14.60;95.20
40638;DHT22;26336;44.696;10.622;2023-03-19T17:17:17;14.70;95.30
40638;DHT22;26336;44.696;10.622;2023-03-19T17:20:26;14.60;95.20
40638;DHT22;26336;44.696;10.622;2023-03-19T17:23:33;14.60;95.40
40638;DHT22;26336;44.696;10.622;2023-03-19T17:26:37;14.50;95.50
40638;DHT22;26336;44.696;10.622;2023-03-19T17:29:43;14.50;95.40
40638;DHT22;26336;44.696;10.622;2023-03-19T17:32:49;14.50;95.60
40638;DHT22;26336;44.696;10.622;2023-03-19T17:36:14;14.50;95.60
40638;DHT22;26336;44.696;10.622;2023-03-19T17:39:18;14.60;95.60
40638;DHT22;26336;44.696;10.622;2023-03-19T17:42:23;14.60;95.60
40638;DHT22;26336;44.696;10.622;2023-03-19T17:45:28;14.70;95.50
40638;DHT22;26336;44.696;10.622;2023-03-19T17:48:35;14.70;95.70
40638;DHT22;26336;44.696;10.622;2023-03-19T17:51:39;14.60;96.40
40638;DHT22;26336;44.696;10.622;2023-03-19T17:54:44;14.60;96.90
40638;DHT22;26336;44.696;10.622;2023-03-19T17:57:48;14.60;98.10
40638;DHT22;26336;44.696;10.622;2023-03-19T18:00:54;14.50;99.40
40638;DHT22;26336;44.696;10.622;2023-03-19T18:03:58;14.40;99.40
40638;DHT22;26336;44.696;10.622;2023-03-19T18:07:03;14.30;99.90
40638;DHT22;26336;44.696;10.622;2023-03-19T18:10:14;14.00;99.90
40638;DHT22;26336;44.696;10.622;2023-03-19T18:13:18;13.90;99.90
40638;DHT22;26336;44.696;10.622;2023-03-19T18:16:28;13.80;99.90
40638;DHT22;26336;44.696;10.622;2023-03-19T18:19:37;13.60;99.90
40638;DHT22;26336;44.696;10.622;2023-03-19T18:22:41;13.60;99.90
40638;DHT22;26336;44.696;10.622;2023-03-19T18:25:45;13.60;99.90
40638;DHT22;26336;44.696;10.622;2023-03-19T18:28:50;13.60;99.90
40638;DHT22;26336;44.696;10.622;2023-03-19T18:31:53;13.60;99.90
40638;DHT22;26336;44.696;10.622;2023-03-19T18:34:58;13.40;99.90
40638;DHT22;26336;44.696;10.622;2023-03-19T18:38:04;13.20;99.90
40638;DHT22;26336;44.696;10.622;2023-03-19T18:41:17;13.20;99.90
40638;DHT22;26336;44.696;10.622;2023-03-19T18:44:21;13.20;99.90
40638;DHT22;26336;44.696;10.622;2023-03-19T18:47:26;13.30;99.90
40638;DHT22;26336;44.696;10.622;2023-03-19T18:50:31;13.40;99.90
40638;DHT22;26336;44.696;10.622;2023-03-19T18:53:35;13.40;99.90
40638;DHT22;26336;44.696;10.622;2023-03-19T18:56:39;13.50;99.90
40638;DHT22;26336;44.696;10.622;2023-03-19T18:59:43;13.40;99.90
40638;DHT22;26336;44.696;10.622;2023-03-19T19:02:48;13.50;99.90
40638;DHT22;26336;44.696;10.622;2023-03-19T19:05:56;13.50;99.90
40638;DHT22;26336;44.696;10.622;2023-03-19T19:09:04;13.60;99.90
40638;DHT22;26336;44.696;10.622;2023-03-19T19:12:11;13.60;99.90
40638;DHT22;26336;44.696;10.622;2023-03-19T19:15:24;13.60;99.90
40638;DHT22;26336;44.696;10.622;2023-03-19T19:18:30;13.50;99.90
40638;DHT22;26336;44.696;10.622;2023-03-19T19:21:35;13.50;99.90
40638;DHT22;26336;44.696;10.622;2023-03-19T19:24:39;13.50;99.90
40638;DHT22;26336;44.696;10.622;2023-03-19T19:27:45;13.50;99.90
40638;DHT22;26336;44.696;10.622;2023-03-19T19:30:49;13.30;99.90
40638;DHT22;26336;44.696;10.622;2023-03-19T19:33:57;13.10;99.90
40638;DHT22;26336;44.696;10.622;2023-03-19T19:37:10;13.00;99.90
40638;DHT22;26336;44.696;10.622;2023-03-19T19:40:29;13.00;99.90
40638;DHT22;26336;44.696;10.622;2023-03-19T19:43:38;13.10;99.90
40638;DHT22;26336;44.696;10.622;2023-03-19T19:46:44;13.20;99.90
40638;DHT22;26336;44.696;10.622;2023-03-19T19:49:48;13.20;99.90
40638;DHT22;26336;44.696;10.622;2023-03-19T19:52:54;13.30;99.90
40638;DHT22;26336;44.696;10.622;2023-03-19T19:55:58;13.30;99.90
40638;DHT22;26336;44.696;10.622;2023-03-19T19:59:05;13.30;99.90
40638;DHT22;26336;44.696;10.622;2023-03-19T20:02:30;13.20;99.90
40638;DHT22;26336;44.696;10.622;2023-03-19T20:05:35;13.10;99.90
40638;DHT22;26336;44.696;10.622;2023-03-19T20:08:40;13.10;99.90
40638;DHT22;26336;44.696;10.622;2023-03-19T20:11:45;13.00;99.90
40638;DHT22;26336;44.696;10.622;2023-03-19T20:14:51;13.00;99.90
40638;DHT22;26336;44.696;10.622;2023-03-19T20:17:55;12.90;99.90
40638;DHT22;26336;44.696;10.622;2023-03-19T20:20:59;12.80;99.90
40638;DHT22;26336;44.696;10.622;2023-03-19T20:24:04;12.60;99.90
40638;DHT22;26336;44.696;10.622;2023-03-19T20:27:24;12.50;99.90
40638;DHT22;26336;44.696;10.622;2023-03-19T20:30:33;12.40;99.90
40638;DHT22;26336;44.696;10.622;2023-03-19T20:33:43;12.30;99.90
40638;DHT22;26336;44.696;10.622;2023-03-19T20:36:51;12.30;99.90
40638;DHT22;26336;44.696;10.622;2023-03-19T20:39:56;12.30;99.90
40638;DHT22;26336;44.696;10.622;2023-03-19T20:43:01;12.30;99.90
40638;DHT22;26336;44.696;10.622;2023-03-19T20:46:08;12.50;99.90
40638;DHT22;26336;44.696;10.622;2023-03-19T20:49:13;12.50;99.90
40638;DHT22;26336;44.696;10.622;2023-03-19T20:52:18;12.70;99.90
40638;DHT22;26336;44.696;10.622;2023-03-19T20:55:24;12.70;99.90
40638;DHT22;26336;44.696;10.622;2023-03-19T20:58:34;12.80;99.90
40638;DHT22;26336;44.696;10.622;2023-03-19T21:01:43;12.90;99.90
40638;DHT22;26336;44.696;10.622;2023-03-19T21:04:49;12.90;99.90
40638;DHT22;26336;44.696;10.622;2023-03-19T21:07:54;12.90;99.90
40638;DHT22;26336;44.696;10.622;2023-03-19T21:11:00;12.90;99.90
40638;DHT22;26336;44.696;10.622;2023-03-19T21:14:13;12.90;99.90
40638;DHT22;26336;44.696;10.622;2023-03-19T21:17:19;12.80;99.90